createdAt,value
2018-12-08T00:00:48.956Z,94971.97
2018-12-08T00:03:16.480Z,94970.26
2018-12-08T00:05:44.312Z,94966.40
2018-12-08T00:08:11.846Z,94963.31
2018-12-08T00:10:39.378Z,94966.36
2018-12-08T00:13:07.197Z,94958.06
2018-12-08T00:15:34.733Z,94955.00
2018-12-08T00:18:02.253Z,94952.33
2018-12-08T00:20:29.984Z,94957.15
2018-12-08T00:22:57.513Z,94948.34
2018-12-08T00:25:25.044Z,94946.05
2018-12-08T00:27:52.832Z,94940.44
2018-12-08T00:33:21.610Z,94944.28
2018-12-08T00:35:49.138Z,94934.10
2018-12-08T00:38:16.960Z,94936.98
2018-12-08T00:40:44.477Z,94939.27
2018-12-08T00:43:12.009Z,94936.00
2018-12-08T00:45:39.756Z,94934.27
2018-12-08T00:48:07.281Z,94935.22
2018-12-08T00:50:34.805Z,94932.16
2018-12-08T00:53:02.546Z,94933.30
2018-12-08T00:55:30.073Z,94934.44
2018-12-08T00:57:57.632Z,94933.50
2018-12-08T01:00:25.361Z,94936.58
2018-12-08T01:02:52.892Z,94934.48
2018-12-08T01:05:20.430Z,94932.77
2018-12-08T01:07:47.984Z,94924.52
2018-12-08T01:10:15.513Z,94916.84
2018-12-08T01:12:43.048Z,94919.52
2018-12-08T01:15:10.989Z,94909.70
2018-12-08T01:17:38.519Z,94915.09
2018-12-08T01:20:06.304Z,94908.20
2018-12-08T01:22:34.032Z,94893.39
2018-12-08T01:25:01.773Z,94900.13
2018-12-08T01:27:29.319Z,94898.38
2018-12-08T01:29:57.105Z,94898.58
2018-12-08T01:32:24.637Z,94893.59
2018-12-08T01:34:52.163Z,94890.53
2018-12-08T01:37:19.732Z,94892.64
2018-12-08T01:39:47.279Z,94893.22
2018-12-08T01:42:14.809Z,94888.98
2018-12-08T01:44:42.332Z,94886.30
2018-12-08T01:47:09.862Z,94879.37
2018-12-08T01:49:37.600Z,94871.50
2018-12-08T01:52:05.129Z,94866.90
2018-12-08T01:54:32.664Z,94865.36
2018-12-08T01:57:00.227Z,94864.22
2018-12-08T01:59:27.757Z,94862.67
2018-12-08T02:01:55.288Z,94855.78
2018-12-08T02:04:23.224Z,94866.31
2018-12-08T02:06:50.876Z,94855.75
2018-12-08T02:09:18.416Z,94864.59
2018-12-08T02:11:46.165Z,94859.98
2018-12-08T02:14:13.700Z,94853.45
2018-12-08T02:16:41.773Z,94848.48
2018-12-08T02:19:09.562Z,94851.52
2018-12-08T02:21:37.083Z,94844.05
2018-12-08T02:24:04.624Z,94840.59
2018-12-08T02:26:32.671Z,94833.29
2018-12-08T02:29:00.209Z,94831.77
2018-12-08T02:31:27.742Z,94836.55
2018-12-08T02:33:55.654Z,94836.55
2018-12-08T02:36:23.233Z,94823.88
2018-12-08T02:38:50.768Z,94838.28
2018-12-08T02:41:18.645Z,94836.94
2018-12-08T02:43:46.169Z,94829.65
2018-12-08T02:46:13.699Z,94834.44
2018-12-08T02:48:41.516Z,94833.30
2018-12-08T02:51:09.054Z,94831.75
2018-12-08T02:53:36.592Z,94826.39
2018-12-08T02:56:04.534Z,94822.94
2018-12-08T02:58:32.104Z,94816.60
2018-12-08T03:00:59.754Z,94822.73
2018-12-08T03:03:27.328Z,94825.78
2018-12-08T03:05:54.870Z,94815.80
2018-12-08T03:08:22.459Z,94813.67
2018-12-08T03:10:50.395Z,94813.13
2018-12-08T03:13:18.061Z,94818.70
2018-12-08T03:15:45.583Z,94820.98
2018-12-08T03:18:13.476Z,94821.20
2018-12-08T03:20:41.160Z,94821.22
2018-12-08T03:23:08.686Z,94816.78
2018-12-08T03:25:36.574Z,94823.30
2018-12-08T03:28:04.251Z,94821.59
2018-12-08T03:30:31.808Z,94824.65
2018-12-08T03:32:59.378Z,94817.36
2018-12-08T03:35:26.925Z,94826.56
2018-12-08T03:37:54.468Z,94826.59
2018-12-08T03:40:22.062Z,94820.81
2018-12-08T03:42:49.646Z,94825.05
2018-12-08T03:45:17.237Z,94825.61
2018-12-08T03:47:45.031Z,94815.25
2018-12-08T03:50:12.646Z,94820.05
2018-12-08T03:52:40.201Z,94799.50
2018-12-08T03:55:07.865Z,94798.92
2018-12-08T03:57:35.407Z,94804.31
2018-12-08T04:00:03.699Z,94798.55
2018-12-08T04:02:31.425Z,94802.40
2018-12-08T04:04:58.971Z,94814.88
2018-12-08T04:07:26.517Z,94800.86
2018-12-08T04:09:54.304Z,94804.70
2018-12-08T04:12:21.842Z,94798.18
2018-12-08T04:14:49.442Z,94800.66
2018-12-08T04:17:17.221Z,94803.34
2018-12-08T04:19:44.746Z,94804.88
2018-12-08T04:22:12.285Z,94796.24
2018-12-08T04:24:40.067Z,94786.07
2018-12-08T04:27:07.688Z,94790.11
2018-12-08T04:29:35.241Z,94789.14
2018-12-08T04:32:03.064Z,94800.66
2018-12-08T04:34:30.608Z,94791.24
2018-12-08T04:36:58.135Z,94798.17
2018-12-08T04:39:25.954Z,94799.12
2018-12-08T04:41:53.485Z,94804.67
2018-12-08T04:44:21.708Z,94797.59
2018-12-08T04:46:49.552Z,94802.00
2018-12-08T04:49:17.088Z,94804.49
2018-12-08T04:51:44.613Z,94806.03
2018-12-08T04:54:12.331Z,94798.74
2018-12-08T04:56:39.941Z,94801.44
2018-12-08T04:59:07.493Z,94801.23
2018-12-08T05:01:35.606Z,94808.92
2018-12-08T05:04:03.167Z,94810.47
2018-12-08T05:06:30.696Z,94807.38
2018-12-08T05:08:58.524Z,94798.35
2018-12-08T05:11:26.065Z,94791.06
2018-12-08T05:13:53.626Z,94802.02
2018-12-08T05:16:21.363Z,94802.59
2018-12-08T05:18:48.900Z,94805.47
2018-12-08T05:21:16.427Z,94804.33
2018-12-08T05:23:43.987Z,94809.87
2018-12-08T05:26:11.551Z,94811.98
2018-12-08T05:28:39.117Z,94805.84
2018-12-08T05:31:06.648Z,94812.95
2018-12-08T05:33:34.182Z,94808.73
2018-12-08T05:36:01.917Z,94811.41
2018-12-08T05:38:29.443Z,94814.67
2018-12-08T05:40:56.965Z,94810.44
2018-12-08T05:43:24.738Z,94808.73
2018-12-08T05:45:52.287Z,94811.62
2018-12-08T05:48:19.824Z,94810.07
2018-12-08T05:50:47.400Z,94805.64
2018-12-08T05:53:14.936Z,94812.76
2018-12-08T05:55:42.469Z,94808.73
2018-12-08T05:58:10.012Z,94806.81
2018-12-08T06:00:37.776Z,94811.04
2018-12-08T06:03:05.676Z,94811.03
2018-12-08T06:05:33.219Z,94813.91
2018-12-08T06:08:00.776Z,94819.64
2018-12-08T06:10:28.648Z,94816.94
2018-12-08T06:12:56.180Z,94813.66
2018-12-08T06:15:23.713Z,94823.66
2018-12-08T06:17:51.500Z,94820.19
2018-12-08T06:20:19.052Z,94819.22
2018-12-08T06:22:46.584Z,94822.64
2018-12-08T06:25:16.798Z,94820.11
2018-12-08T06:27:49.089Z,94829.42
2018-12-08T06:30:16.649Z,94822.05
2018-12-08T06:32:44.496Z,94824.50
2018-12-08T06:35:12.289Z,94826.88
2018-12-08T06:37:39.828Z,94825.81
2018-12-08T06:40:07.571Z,94825.73
2018-12-08T06:42:35.114Z,94828.66
2018-12-08T06:45:02.803Z,94834.35
2018-12-08T06:47:30.693Z,94835.86
2018-12-08T06:49:58.223Z,94842.26
2018-12-08T06:52:25.817Z,94849.15
2018-12-08T06:54:53.572Z,94838.83
2018-12-08T06:57:21.101Z,94822.84
2018-12-08T06:59:48.641Z,94827.64
2018-12-08T07:02:16.532Z,94828.73
2018-12-08T07:04:44.092Z,94829.45
2018-12-08T07:07:11.614Z,94827.66
2018-12-08T07:09:39.205Z,94817.10
2018-12-08T07:12:06.773Z,94819.00
2018-12-08T07:14:34.300Z,94813.30
2018-12-08T07:17:02.235Z,94814.19
2018-12-08T07:19:29.776Z,94810.23
2018-12-08T07:21:57.333Z,94808.80
2018-12-08T07:24:25.107Z,94805.28
2018-12-08T07:26:52.651Z,94800.52
2018-12-08T07:29:20.280Z,94792.81
2018-12-08T07:31:47.848Z,94789.04
2018-12-08T07:34:15.630Z,94785.25
2018-12-08T07:36:43.169Z,94791.02
2018-12-08T07:39:11.080Z,94780.70
2018-12-08T07:41:38.632Z,94787.06
2018-12-08T07:44:06.181Z,94790.94
2018-12-08T07:46:33.955Z,94787.64
2018-12-08T07:49:01.492Z,94790.55
2018-12-08T07:51:29.052Z,94790.89
2018-12-08T07:53:56.936Z,94789.42
2018-12-08T07:56:24.489Z,94794.52
2018-12-08T07:58:52.037Z,94795.17
2018-12-08T08:01:20.006Z,94794.98
2018-12-08T08:03:47.539Z,94785.42
2018-12-08T08:06:15.064Z,94790.41
2018-12-08T08:08:42.858Z,94790.09
2018-12-08T08:11:10.390Z,94783.45
2018-12-08T08:13:37.939Z,94776.66
2018-12-08T08:16:05.871Z,94784.06
2018-12-08T08:18:33.481Z,94781.38
2018-12-08T08:21:01.091Z,94783.27
2018-12-08T08:23:28.936Z,94782.04
2018-12-08T08:25:56.548Z,94784.75
2018-12-08T08:28:24.090Z,94777.61
2018-12-08T08:30:51.914Z,94773.22
2018-12-08T08:33:19.450Z,94759.80
2018-12-08T08:35:47.144Z,94771.13
2018-12-08T08:38:14.995Z,94780.08
2018-12-08T08:40:42.595Z,94774.55
2018-12-08T08:43:10.207Z,94769.78
2018-12-08T08:45:37.807Z,94773.27
2018-12-08T08:48:05.366Z,94773.75
2018-12-08T08:50:32.936Z,94777.03
2018-12-08T08:53:02.605Z,94777.88
2018-12-08T08:55:30.146Z,94774.99
2018-12-08T08:57:57.678Z,94782.75
2018-12-08T09:00:25.599Z,94783.49
2018-12-08T09:02:53.199Z,94776.09
2018-12-08T09:05:20.745Z,94769.29
2018-12-08T09:07:48.580Z,94767.70
2018-12-08T09:10:16.173Z,94775.45
2018-12-08T09:12:43.773Z,94769.25
2018-12-08T09:15:11.796Z,94762.67
2018-12-08T09:17:39.339Z,94765.72
2018-12-08T09:20:08.596Z,94762.06
2018-12-08T09:22:36.421Z,94750.51
2018-12-08T09:25:04.807Z,94754.64
2018-12-08T09:27:32.344Z,94748.52
2018-12-08T09:30:00.146Z,94736.84
2018-12-08T09:32:27.769Z,94736.41
2018-12-08T09:34:55.443Z,94732.28
2018-12-08T09:37:23.364Z,94723.36
2018-12-08T09:39:50.910Z,94728.06
2018-12-08T09:42:18.947Z,94722.01
2018-12-08T09:44:46.973Z,94722.09
2018-12-08T09:47:14.521Z,94723.04
2018-12-08T09:49:42.055Z,94714.91
2018-12-08T09:52:09.603Z,94712.95
2018-12-08T09:54:37.136Z,94713.91
2018-12-08T09:57:04.735Z,94716.26
2018-12-08T09:59:32.678Z,94709.33
2018-12-08T10:02:00.223Z,94704.39
2018-12-08T10:04:27.862Z,94696.34
2018-12-08T10:06:55.670Z,94694.57
2018-12-08T10:09:23.196Z,94688.09
2018-12-08T10:11:50.731Z,94684.39
2018-12-08T10:14:18.349Z,94689.97
2018-12-08T10:16:47.907Z,94678.84
2018-12-08T10:19:15.535Z,94673.75
2018-12-08T10:21:43.586Z,94666.95
2018-12-08T10:24:11.352Z,94673.91
2018-12-08T10:26:38.885Z,94672.38
2018-12-08T10:29:07.012Z,94665.16
2018-12-08T10:31:34.547Z,94665.38
2018-12-08T10:34:02.083Z,94652.54
2018-12-08T10:36:41.758Z,94656.42
2018-12-08T10:39:09.324Z,94650.27
2018-12-08T10:41:36.867Z,94631.14
2018-12-08T10:44:04.676Z,94641.82
2018-12-08T10:46:32.276Z,94638.59
2018-12-08T10:48:59.803Z,94641.56
2018-12-08T10:51:27.735Z,94628.87
2018-12-08T10:53:55.271Z,94634.20
2018-12-08T10:56:22.862Z,94625.20
2018-12-08T10:58:50.724Z,94618.70
2018-12-08T11:01:18.622Z,94620.53
2018-12-08T11:03:47.607Z,94608.53
2018-12-08T11:06:16.926Z,94619.32
2018-12-08T11:08:44.816Z,94607.80
2018-12-08T11:11:12.384Z,94607.68
2018-12-08T11:13:39.976Z,94607.25
2018-12-08T11:16:07.544Z,94598.51
2018-12-08T11:18:35.215Z,94595.05
2018-12-08T11:21:02.792Z,94601.04
2018-12-08T11:23:30.320Z,94600.23
2018-12-08T11:25:57.986Z,94591.67
2018-12-08T11:28:25.899Z,94589.28
2018-12-08T11:30:53.424Z,94586.58
2018-12-08T11:33:21.051Z,94589.86
2018-12-08T11:35:49.671Z,94580.09
2018-12-08T11:38:17.394Z,94578.99
2018-12-08T11:40:44.923Z,94571.17
2018-12-08T11:43:12.778Z,94551.08
2018-12-08T11:45:40.332Z,94555.58
2018-12-08T11:48:07.877Z,94558.36
2018-12-08T11:50:35.438Z,94559.45
2018-12-08T11:53:03.002Z,94570.38
2018-12-08T11:55:30.710Z,94561.52
2018-12-08T11:57:58.753Z,94568.88
2018-12-08T12:00:27.450Z,94577.66
2018-12-08T12:02:56.015Z,94572.81
2018-12-08T12:05:23.591Z,94567.21
2018-12-08T12:07:51.143Z,94570.56
2018-12-08T12:10:19.003Z,94579.44
2018-12-08T12:12:46.920Z,94564.61
2018-12-08T12:15:14.528Z,94566.28
2018-12-08T12:17:42.084Z,94586.34
2018-12-08T12:20:09.984Z,94570.28
2018-12-08T12:22:37.522Z,94572.80
2018-12-08T12:25:05.937Z,94566.80
2018-12-08T12:27:33.764Z,94572.47
2018-12-08T12:30:01.301Z,94569.73
2018-12-08T12:32:28.823Z,94559.91
2018-12-08T12:34:56.750Z,94553.32
2018-12-08T12:37:24.321Z,94551.47
2018-12-08T12:39:51.855Z,94551.20
2018-12-08T12:42:19.423Z,94541.28
2018-12-08T12:44:47.009Z,94539.51
2018-12-08T12:47:14.569Z,94545.84
2018-12-08T12:49:42.507Z,94552.73
2018-12-08T12:52:10.049Z,94542.73
2018-12-08T12:54:37.647Z,94543.42
2018-12-08T12:57:05.522Z,94549.72
2018-12-08T12:59:33.069Z,94554.45
2018-12-08T13:02:00.603Z,94563.11
2018-12-08T13:04:28.495Z,94553.22
2018-12-08T13:06:56.075Z,94554.59
2018-12-08T13:09:23.613Z,94550.88
2018-12-08T13:11:51.577Z,94544.02
2018-12-08T13:14:19.199Z,94541.12
2018-12-08T13:16:46.824Z,94529.50
2018-12-08T13:19:14.589Z,94527.89
2018-12-08T13:21:42.529Z,94528.62
2018-12-08T13:24:10.320Z,94534.95
2018-12-08T13:26:38.283Z,94525.12
2018-12-08T13:29:05.962Z,94522.89
2018-12-08T13:31:33.486Z,94530.00
2018-12-08T13:34:05.260Z,94524.18
2018-12-08T13:36:32.795Z,94531.12
2018-12-08T13:39:00.341Z,94535.44
2018-12-08T13:41:28.109Z,94536.82
2018-12-08T13:43:55.784Z,94545.69
2018-12-08T13:46:23.349Z,94550.45
2018-12-08T13:48:51.316Z,94544.91
2018-12-08T13:51:19.109Z,94544.64
2018-12-08T13:53:46.690Z,94542.55
2018-12-08T13:56:14.314Z,94544.81
2018-12-08T13:58:41.868Z,94558.03
2018-12-08T14:01:09.392Z,94553.12
2018-12-08T14:03:37.156Z,94551.44
2018-12-08T14:06:04.700Z,94544.90
2018-12-08T14:08:32.235Z,94555.34
2018-12-08T14:11:00.161Z,94556.77
2018-12-08T14:13:27.700Z,94550.41
2018-12-08T14:15:55.234Z,94565.84
2018-12-08T14:18:23.116Z,94565.41
2018-12-08T14:20:50.627Z,94570.25
2018-12-08T14:23:18.322Z,94574.73
2018-12-08T14:25:45.977Z,94580.73
2018-12-08T14:28:14.340Z,94585.12
2018-12-08T14:30:42.045Z,94585.53
2018-12-08T14:33:09.828Z,94578.50
2018-12-08T14:35:37.419Z,94583.06
2018-12-08T14:38:05.020Z,94574.17
2018-12-08T14:40:32.932Z,94575.80
2018-12-08T14:43:00.453Z,94580.36
2018-12-08T14:45:28.129Z,94577.30
2018-12-08T14:47:55.929Z,94569.03
2018-12-08T14:50:23.505Z,94551.59
2018-12-08T14:52:51.082Z,94553.10
2018-12-08T14:55:18.684Z,94555.16
2018-12-08T14:57:46.253Z,94562.95
2018-12-08T15:00:14.190Z,94557.69
2018-12-08T15:02:42.080Z,94550.81
2018-12-08T15:05:09.846Z,94557.16
2018-12-08T15:07:37.416Z,94559.69
2018-12-08T15:10:06.536Z,94579.48
2018-12-08T15:12:34.155Z,94586.26
2018-12-08T15:15:01.694Z,94581.58
2018-12-08T15:17:29.525Z,94570.19
2018-12-08T15:19:57.256Z,94578.20
2018-12-08T15:22:24.923Z,94570.52
2018-12-08T15:24:52.882Z,94563.76
2018-12-08T15:27:20.442Z,94571.88
2018-12-08T15:29:47.966Z,94566.86
2018-12-08T15:32:15.837Z,94575.43
2018-12-08T15:34:43.384Z,94572.06
2018-12-08T15:37:11.060Z,94572.14
2018-12-08T15:39:39.002Z,94572.61
2018-12-08T15:42:06.556Z,94568.30
2018-12-08T15:44:34.088Z,94574.58
2018-12-08T15:47:01.671Z,94576.63
2018-12-08T15:49:29.485Z,94581.56
2018-12-08T15:51:57.099Z,94579.92
2018-12-08T15:54:24.704Z,94575.20
2018-12-08T15:56:52.244Z,94566.64
2018-12-08T15:59:19.832Z,94563.09
2018-12-08T16:01:47.689Z,94554.72
2018-12-08T16:04:15.272Z,94551.75
2018-12-08T16:06:42.822Z,94544.45
2018-12-08T16:09:10.714Z,94549.63
2018-12-08T16:11:38.382Z,94554.94
2018-12-08T16:14:06.012Z,94543.50
2018-12-08T16:16:33.607Z,94545.84
2018-12-08T16:19:01.154Z,94546.87
2018-12-08T16:21:28.712Z,94550.41
2018-12-08T16:23:56.625Z,94545.88
2018-12-08T16:26:24.313Z,94554.58
2018-12-08T16:28:51.908Z,94553.18
2018-12-08T16:31:21.571Z,94561.41
2018-12-08T16:33:49.448Z,94562.94
2018-12-08T16:36:16.980Z,94559.80
2018-12-08T16:38:44.912Z,94563.02
2018-12-08T16:41:12.612Z,94556.73
2018-12-08T16:43:40.168Z,94554.70
2018-12-08T16:46:08.227Z,94557.87
2018-12-08T16:48:35.933Z,94558.28
2018-12-08T16:51:03.464Z,94559.80
2018-12-08T16:53:31.277Z,94561.98
2018-12-08T16:55:58.896Z,94560.31
2018-12-08T16:58:26.494Z,94559.20
2018-12-08T17:00:54.257Z,94557.27
2018-12-08T17:03:21.830Z,94565.23
2018-12-08T17:05:49.363Z,94559.98
2018-12-08T17:08:17.271Z,94554.23
2018-12-08T17:10:44.851Z,94551.52
2018-12-08T17:13:12.423Z,94553.17
2018-12-08T17:15:40.253Z,94552.52
2018-12-08T17:18:08.577Z,94558.00
2018-12-08T17:20:36.397Z,94563.41
2018-12-08T17:23:04.183Z,94559.82
2018-12-08T17:25:31.744Z,94563.72
2018-12-08T17:27:59.405Z,94564.45
2018-12-08T17:30:27.510Z,94562.15
2018-12-08T17:32:55.214Z,94568.25
2018-12-08T17:35:22.832Z,94565.22
2018-12-08T17:37:50.823Z,94565.51
2018-12-08T17:40:18.470Z,94563.83
2018-12-08T17:42:46.110Z,94568.94
2018-12-08T17:45:14.139Z,94570.16
2018-12-08T17:47:41.707Z,94567.97
2018-12-08T17:50:09.284Z,94580.19
2018-12-08T17:52:37.138Z,94583.20
2018-12-08T17:55:05.826Z,94580.58
2018-12-08T17:57:33.381Z,94579.85
2018-12-08T18:00:01.344Z,94574.11
2018-12-08T18:02:30.450Z,94574.36
2018-12-08T18:04:58.025Z,94569.72
2018-12-08T18:07:25.897Z,94561.60
2018-12-08T18:09:53.472Z,94562.99
2018-12-08T18:12:21.076Z,94573.75
2018-12-08T18:14:48.999Z,94565.48
2018-12-08T18:17:18.362Z,94564.86
2018-12-08T18:19:46.729Z,94556.81
2018-12-08T18:22:14.739Z,94562.08
2018-12-08T18:24:42.334Z,94559.00
2018-12-08T18:27:10.005Z,94564.23
2018-12-08T18:29:37.905Z,94558.46
2018-12-08T18:32:05.618Z,94561.27
2018-12-08T18:34:33.335Z,94560.76
2018-12-08T18:37:01.210Z,94561.83
2018-12-08T18:39:28.777Z,94556.23
2018-12-08T18:41:56.336Z,94561.97
2018-12-08T18:44:24.237Z,94562.44
2018-12-08T18:46:51.787Z,94560.76
2018-12-08T18:49:19.340Z,94562.11
2018-12-08T18:51:47.018Z,94562.40
2018-12-08T18:54:14.577Z,94564.67
2018-12-08T18:56:42.511Z,94559.62
2018-12-08T18:59:10.058Z,94560.45
2018-12-08T19:01:37.618Z,94562.76
2018-12-08T19:04:05.217Z,94561.23
2018-12-08T19:06:32.753Z,94552.56
2018-12-08T19:09:00.280Z,94551.36
2018-12-08T19:11:28.064Z,94551.69
2018-12-08T19:13:55.661Z,94556.55
2018-12-08T19:16:23.247Z,94560.72
2018-12-08T19:18:51.769Z,94558.59
2018-12-08T19:21:19.331Z,94558.95
2018-12-08T19:23:46.871Z,94554.05
2018-12-08T19:26:14.456Z,94551.87
2018-12-08T19:28:42.029Z,94553.92
2018-12-08T19:31:09.907Z,94560.77
2018-12-08T19:33:37.920Z,94554.77
2018-12-08T19:36:05.481Z,94548.91
2018-12-08T19:38:33.027Z,94549.94
2018-12-08T19:41:00.575Z,94553.41
2018-12-08T19:43:28.182Z,94557.11
2018-12-08T19:45:55.717Z,94563.14
2018-12-08T19:48:23.432Z,94562.95
2018-12-08T19:50:50.987Z,94564.75
2018-12-08T19:53:18.539Z,94553.30
2018-12-08T19:55:46.508Z,94563.28
2018-12-08T19:58:14.081Z,94569.65
2018-12-08T20:00:41.693Z,94564.71
2018-12-08T20:03:12.810Z,94560.95
2018-12-08T20:05:40.370Z,94566.61
2018-12-08T20:08:08.063Z,94562.48
2018-12-08T20:10:35.849Z,94561.56
2018-12-08T20:13:03.541Z,94562.62
2018-12-08T20:15:31.134Z,94559.08
2018-12-08T20:17:58.984Z,94567.51
2018-12-08T20:20:26.553Z,94560.33
2018-12-08T20:22:54.171Z,94560.00
2018-12-08T20:25:22.052Z,94558.72
2018-12-08T20:27:49.646Z,94554.56
2018-12-08T20:30:17.238Z,94559.31
2018-12-08T20:32:45.134Z,94562.89
2018-12-08T20:35:13.510Z,94557.03
2018-12-08T20:37:41.069Z,94550.77
2018-12-08T20:40:08.990Z,94544.77
2018-12-08T20:42:36.514Z,94540.62
2018-12-08T20:45:04.411Z,94542.34
2018-12-08T20:47:32.428Z,94542.34
2018-12-08T20:49:59.975Z,94538.42
2018-12-08T20:52:27.515Z,94537.94
2018-12-08T20:54:55.315Z,94543.02
2018-12-08T20:57:22.868Z,94538.70
2018-12-08T20:59:50.624Z,94539.55
2018-12-08T21:02:18.301Z,94534.46
2018-12-08T21:04:45.955Z,94525.48
2018-12-08T21:07:13.799Z,94536.17
2018-12-08T21:09:41.685Z,94535.41
2018-12-08T21:12:09.248Z,94540.06
2018-12-08T21:14:36.850Z,94540.33
2018-12-08T21:17:04.459Z,94538.38
2018-12-08T21:19:32.012Z,94528.45
2018-12-08T21:21:59.563Z,94538.86
2018-12-08T21:24:27.140Z,94542.56
2018-12-08T21:26:54.755Z,94537.61
2018-12-08T21:29:22.335Z,94543.59
2018-12-08T21:31:49.973Z,94545.88
2018-12-08T21:34:17.510Z,94552.70
2018-12-08T21:36:45.073Z,94555.22
2018-12-08T21:39:12.944Z,94545.69
2018-12-08T21:41:40.473Z,94544.02
2018-12-08T21:44:08.056Z,94545.88
2018-12-08T21:46:35.921Z,94536.17
2018-12-08T21:49:03.489Z,94539.80
2018-12-08T21:51:31.119Z,94535.99
2018-12-08T21:53:58.675Z,94538.52
2018-12-08T21:56:26.209Z,94531.88
2018-12-08T21:58:53.746Z,94531.27
2018-12-08T22:01:21.589Z,94534.36
2018-12-08T22:03:49.124Z,94534.07
2018-12-08T22:06:16.680Z,94538.28
2018-12-08T22:08:44.587Z,94547.12
2018-12-08T22:11:12.168Z,94549.97
2018-12-08T22:13:39.720Z,94552.42
2018-12-08T22:16:07.460Z,94555.19
2018-12-08T22:18:35.001Z,94554.76
2018-12-08T22:21:02.679Z,94553.70
2018-12-08T22:23:30.452Z,94547.52
2018-12-08T22:25:58.003Z,94553.77
2018-12-08T22:28:25.551Z,94552.05
2018-12-08T22:30:53.266Z,94546.71
2018-12-08T22:33:20.829Z,94543.09
2018-12-08T22:35:48.382Z,94541.52
2018-12-08T22:38:15.957Z,94534.13
2018-12-08T22:40:43.492Z,94538.52
2018-12-08T22:43:11.021Z,94529.41
2018-12-08T22:45:38.760Z,94529.56
2018-12-08T22:48:06.303Z,94531.32
2018-12-08T22:50:33.833Z,94528.55
2018-12-08T22:53:01.729Z,94520.33
2018-12-08T22:55:29.273Z,94520.16
2018-12-08T22:57:56.800Z,94520.59
2018-12-08T23:00:36.052Z,94508.95
2018-12-08T23:03:03.735Z,94510.48
2018-12-08T23:05:31.265Z,94516.41
2018-12-08T23:07:58.893Z,94517.66
2018-12-08T23:10:26.424Z,94521.39
2018-12-08T23:12:53.969Z,94517.62
2018-12-08T23:15:21.821Z,94514.69
2018-12-08T23:17:49.495Z,94513.30
2018-12-08T23:20:17.037Z,94510.95
2018-12-08T23:22:44.839Z,94512.22
2018-12-08T23:25:12.513Z,94519.73
2018-12-08T23:27:40.096Z,94519.22
2018-12-08T23:30:10.156Z,94516.97
2018-12-08T23:32:37.699Z,94522.30
2018-12-08T23:35:05.495Z,94523.58
2018-12-08T23:37:33.389Z,94524.09
2018-12-08T23:40:00.938Z,94526.21
2018-12-08T23:42:28.608Z,94531.68
2018-12-08T23:44:56.164Z,94534.84
2018-12-08T23:47:23.706Z,94540.12
2018-12-08T23:49:51.252Z,94543.55
2018-12-08T23:52:19.092Z,94544.08
2018-12-08T23:54:46.641Z,94547.48
2018-12-08T23:57:14.194Z,94550.27
2018-12-08T23:59:42.058Z,94553.12
